sensor_id;sensor_type;location;lat;lon;timestamp;P1;durP1;ratioP1;P2;durP2;ratioP2
65368;SDS011;51970;53.484;49.488;2023-02-03T00:01:41;23.23;;;8.02;;
65368;SDS011;51970;53.484;49.488;2023-02-03T00:04:07;22.90;;;8.93;;
65368;SDS011;51970;53.484;49.488;2023-02-03T00:06:33;18.40;;;7.70;;
65368;SDS011;51970;53.484;49.488;2023-02-03T00:09:00;19.33;;;7.70;;
65368;SDS011;51970;53.484;49.488;2023-02-03T00:11:29;21.13;;;8.18;;
65368;SDS011;51970;53.484;49.488;2023-02-03T00:13:56;18.55;;;7.40;;
65368;SDS011;51970;53.484;49.488;2023-02-03T00:16:22;20.73;;;7.60;;
65368;SDS011;51970;53.484;49.488;2023-02-03T00:18:48;18.20;;;8.13;;
65368;SDS011;51970;53.484;49.488;2023-02-03T00:21:14;19.02;;;7.10;;
65368;SDS011;51970;53.484;49.488;2023-02-03T00:23:41;14.57;;;5.82;;
65368;SDS011;51970;53.484;49.488;2023-02-03T00:26:11;18.30;;;7.25;;
65368;SDS011;51970;53.484;49.488;2023-02-03T00:28:38;17.85;;;7.20;;
65368;SDS011;51970;53.484;49.488;2023-02-03T00:31:05;15.85;;;6.28;;
65368;SDS011;51970;53.484;49.488;2023-02-03T00:33:40;15.43;;;7.60;;
65368;SDS011;51970;53.484;49.488;2023-02-03T00:36:06;18.58;;;7.18;;
65368;SDS011;51970;53.484;49.488;2023-02-03T00:38:32;19.20;;;7.38;;
65368;SDS011;51970;53.484;49.488;2023-02-03T00:40:58;18.75;;;7.78;;
65368;SDS011;51970;53.484;49.488;2023-02-03T00:43:25;16.50;;;6.80;;
65368;SDS011;51970;53.484;49.488;2023-02-03T00:45:51;15.93;;;6.93;;
65368;SDS011;51970;53.484;49.488;2023-02-03T00:48:17;18.27;;;7.07;;
65368;SDS011;51970;53.484;49.488;2023-02-03T00:50:47;16.80;;;7.20;;
65368;SDS011;51970;53.484;49.488;2023-02-03T00:53:13;22.80;;;7.93;;
65368;SDS011;51970;53.484;49.488;2023-02-03T00:55:41;13.00;;;6.13;;
65368;SDS011;51970;53.484;49.488;2023-02-03T00:58:07;15.65;;;8.93;;
65368;SDS011;51970;53.484;49.488;2023-02-03T01:00:33;17.02;;;6.93;;
65368;SDS011;51970;53.484;49.488;2023-02-03T01:02:59;17.17;;;6.85;;
65368;SDS011;51970;53.484;49.488;2023-02-03T01:05:26;19.90;;;6.63;;
65368;SDS011;51970;53.484;49.488;2023-02-03T01:07:52;17.92;;;7.18;;
65368;SDS011;51970;53.484;49.488;2023-02-03T01:10:18;17.05;;;7.10;;
65368;SDS011;51970;53.484;49.488;2023-02-03T01:12:44;19.38;;;7.88;;
65368;SDS011;51970;53.484;49.488;2023-02-03T01:15:12;14.43;;;6.10;;
65368;SDS011;51970;53.484;49.488;2023-02-03T01:17:38;16.23;;;6.72;;
65368;SDS011;51970;53.484;49.488;2023-02-03T01:20:05;15.23;;;6.35;;
65368;SDS011;51970;53.484;49.488;2023-02-03T01:22:31;14.80;;;5.45;;
65368;SDS011;51970;53.484;49.488;2023-02-03T01:24:57;16.10;;;6.20;;
65368;SDS011;51970;53.484;49.488;2023-02-03T01:27:23;13.10;;;5.75;;
65368;SDS011;51970;53.484;49.488;2023-02-03T01:29:49;14.50;;;6.30;;
65368;SDS011;51970;53.484;49.488;2023-02-03T01:32:15;16.70;;;5.65;;
65368;SDS011;51970;53.484;49.488;2023-02-03T01:34:42;15.18;;;6.28;;
65368;SDS011;51970;53.484;49.488;2023-02-03T01:37:08;14.13;;;6.72;;
65368;SDS011;51970;53.484;49.488;2023-02-03T01:39:34;16.77;;;6.75;;
65368;SDS011;51970;53.484;49.488;2023-02-03T01:45:09;15.23;;;6.18;;
65368;SDS011;51970;53.484;49.488;2023-02-03T01:47:38;21.42;;;7.45;;
65368;SDS011;51970;53.484;49.488;2023-02-03T01:50:19;14.55;;;6.32;;
65368;SDS011;51970;53.484;49.488;2023-02-03T01:52:52;17.88;;;7.28;;
65368;SDS011;51970;53.484;49.488;2023-02-03T01:55:24;15.73;;;8.65;;
65368;SDS011;51970;53.484;49.488;2023-02-03T01:58:03;18.23;;;7.30;;
65368;SDS011;51970;53.484;49.488;2023-02-03T02:00:37;17.00;;;7.40;;
65368;SDS011;51970;53.484;49.488;2023-02-03T02:03:03;14.70;;;6.70;;
65368;SDS011;51970;53.484;49.488;2023-02-03T02:05:33;15.75;;;6.50;;
65368;SDS011;51970;53.484;49.488;2023-02-03T02:08:00;25.25;;;6.55;;
65368;SDS011;51970;53.484;49.488;2023-02-03T02:10:29;18.30;;;6.10;;
65368;SDS011;51970;53.484;49.488;2023-02-03T02:12:58;14.45;;;6.60;;
65368;SDS011;51970;53.484;49.488;2023-02-03T02:15:31;14.15;;;6.22;;
65368;SDS011;51970;53.484;49.488;2023-02-03T02:18:27;17.35;;;6.47;;
65368;SDS011;51970;53.484;49.488;2023-02-03T02:26:39;23.15;;;8.68;;
65368;SDS011;51970;53.484;49.488;2023-02-03T02:35:02;19.70;;;8.00;;
65368;SDS011;51970;53.484;49.488;2023-02-03T02:37:34;13.05;;;7.07;;
65368;SDS011;51970;53.484;49.488;2023-02-03T02:43:12;19.83;;;6.45;;
65368;SDS011;51970;53.484;49.488;2023-02-03T02:45:49;17.52;;;7.65;;
65368;SDS011;51970;53.484;49.488;2023-02-03T02:50:51;16.58;;;6.38;;
65368;SDS011;51970;53.484;49.488;2023-02-03T02:53:21;17.60;;;6.68;;
65368;SDS011;51970;53.484;49.488;2023-02-03T02:55:51;20.20;;;7.38;;
65368;SDS011;51970;53.484;49.488;2023-02-03T02:58:18;15.68;;;7.47;;
65368;SDS011;51970;53.484;49.488;2023-02-03T03:00:46;19.73;;;9.77;;
65368;SDS011;51970;53.484;49.488;2023-02-03T03:03:13;13.48;;;5.88;;
65368;SDS011;51970;53.484;49.488;2023-02-03T03:05:47;13.90;;;6.45;;
65368;SDS011;51970;53.484;49.488;2023-02-03T03:08:53;12.27;;;5.28;;
65368;SDS011;51970;53.484;49.488;2023-02-03T03:11:22;15.15;;;6.85;;
65368;SDS011;51970;53.484;49.488;2023-02-03T03:13:52;14.05;;;6.88;;
65368;SDS011;51970;53.484;49.488;2023-02-03T03:16:24;14.40;;;6.72;;
65368;SDS011;51970;53.484;49.488;2023-02-03T03:18:56;14.10;;;5.75;;
65368;SDS011;51970;53.484;49.488;2023-02-03T03:21:26;11.40;;;6.15;;
65368;SDS011;51970;53.484;49.488;2023-02-03T03:24:00;13.43;;;6.07;;
65368;SDS011;51970;53.484;49.488;2023-02-03T03:26:41;15.65;;;5.82;;
65368;SDS011;51970;53.484;49.488;2023-02-03T03:29:20;18.90;;;5.85;;
65368;SDS011;51970;53.484;49.488;2023-02-03T03:31:53;16.80;;;6.00;;
65368;SDS011;51970;53.484;49.488;2023-02-03T03:34:21;14.80;;;6.05;;
65368;SDS011;51970;53.484;49.488;2023-02-03T03:36:54;13.38;;;9.50;;
65368;SDS011;51970;53.484;49.488;2023-02-03T03:39:42;16.23;;;7.00;;
65368;SDS011;51970;53.484;49.488;2023-02-03T03:45:04;11.48;;;4.88;;
65368;SDS011;51970;53.484;49.488;2023-02-03T03:48:04;15.07;;;5.88;;
65368;SDS011;51970;53.484;49.488;2023-02-03T03:50:33;19.63;;;6.75;;
65368;SDS011;51970;53.484;49.488;2023-02-03T03:53:05;20.23;;;7.57;;
65368;SDS011;51970;53.484;49.488;2023-02-03T03:55:34;12.70;;;5.30;;
65368;SDS011;51970;53.484;49.488;2023-02-03T03:58:07;15.48;;;5.90;;
65368;SDS011;51970;53.484;49.488;2023-02-03T04:00:38;9.77;;;5.05;;
65368;SDS011;51970;53.484;49.488;2023-02-03T04:03:08;11.82;;;5.60;;
65368;SDS011;51970;53.484;49.488;2023-02-03T04:05:39;11.23;;;5.90;;
65368;SDS011;51970;53.484;49.488;2023-02-03T04:08:05;13.98;;;7.28;;
65368;SDS011;51970;53.484;49.488;2023-02-03T04:10:36;14.43;;;5.63;;
65368;SDS011;51970;53.484;49.488;2023-02-03T04:13:06;10.65;;;4.97;;
65368;SDS011;51970;53.484;49.488;2023-02-03T04:15:33;12.90;;;6.63;;
65368;SDS011;51970;53.484;49.488;2023-02-03T04:17:59;15.25;;;6.25;;
65368;SDS011;51970;53.484;49.488;2023-02-03T04:20:26;11.00;;;4.97;;
65368;SDS011;51970;53.484;49.488;2023-02-03T04:22:56;13.32;;;5.65;;
65368;SDS011;51970;53.484;49.488;2023-02-03T04:25:23;15.32;;;7.05;;
65368;SDS011;51970;53.484;49.488;2023-02-03T04:27:50;11.75;;;4.90;;
65368;SDS011;51970;53.484;49.488;2023-02-03T04:30:16;19.15;;;6.80;;
65368;SDS011;51970;53.484;49.488;2023-02-03T04:32:43;13.27;;;5.82;;
65368;SDS011;51970;53.484;49.488;2023-02-03T04:35:10;15.32;;;7.10;;
65368;SDS011;51970;53.484;49.488;2023-02-03T04:37:36;14.52;;;6.53;;
65368;SDS011;51970;53.484;49.488;2023-02-03T04:40:02;18.33;;;6.15;;
65368;SDS011;51970;53.484;49.488;2023-02-03T04:42:28;14.02;;;6.03;;
65368;SDS011;51970;53.484;49.488;2023-02-03T04:44:55;15.25;;;8.25;;
65368;SDS011;51970;53.484;49.488;2023-02-03T04:47:22;14.75;;;6.20;;
65368;SDS011;51970;53.484;49.488;2023-02-03T04:49:48;21.98;;;10.55;;
65368;SDS011;51970;53.484;49.488;2023-02-03T04:52:15;14.52;;;6.30;;
65368;SDS011;51970;53.484;49.488;2023-02-03T04:54:44;16.98;;;7.47;;
65368;SDS011;51970;53.484;49.488;2023-02-03T04:57:16;13.60;;;5.05;;
65368;SDS011;51970;53.484;49.488;2023-02-03T04:59:44;13.73;;;7.45;;
65368;SDS011;51970;53.484;49.488;2023-02-03T05:02:21;14.25;;;7.03;;
65368;SDS011;51970;53.484;49.488;2023-02-03T05:05:14;14.48;;;6.30;;
65368;SDS011;51970;53.484;49.488;2023-02-03T05:07:43;13.52;;;6.40;;
65368;SDS011;51970;53.484;49.488;2023-02-03T05:10:24;12.07;;;5.88;;
65368;SDS011;51970;53.484;49.488;2023-02-03T05:13:09;14.38;;;6.55;;
65368;SDS011;51970;53.484;49.488;2023-02-03T05:16:05;12.38;;;6.75;;
65368;SDS011;51970;53.484;49.488;2023-02-03T05:19:12;16.80;;;6.80;;
65368;SDS011;51970;53.484;49.488;2023-02-03T05:22:07;11.13;;;4.70;;
65368;SDS011;51970;53.484;49.488;2023-02-03T05:24:48;17.60;;;6.65;;
65368;SDS011;51970;53.484;49.488;2023-02-03T05:27:26;10.25;;;4.85;;
65368;SDS011;51970;53.484;49.488;2023-02-03T05:29:56;12.07;;;5.43;;
65368;SDS011;51970;53.484;49.488;2023-02-03T05:33:03;10.18;;;5.43;;
65368;SDS011;51970;53.484;49.488;2023-02-03T05:35:38;11.95;;;5.38;;
65368;SDS011;51970;53.484;49.488;2023-02-03T05:41:23;19.95;;;6.22;;
65368;SDS011;51970;53.484;49.488;2023-02-03T05:44:31;14.48;;;6.32;;
65368;SDS011;51970;53.484;49.488;2023-02-03T05:47:08;15.93;;;7.15;;
65368;SDS011;51970;53.484;49.488;2023-02-03T05:49:41;12.65;;;6.18;;
65368;SDS011;51970;53.484;49.488;2023-02-03T05:52:11;19.30;;;6.50;;
65368;SDS011;51970;53.484;49.488;2023-02-03T05:54:50;33.75;;;6.85;;
65368;SDS011;51970;53.484;49.488;2023-02-03T05:57:44;13.70;;;6.07;;
65368;SDS011;51970;53.484;49.488;2023-02-03T06:00:12;17.75;;;6.55;;
65368;SDS011;51970;53.484;49.488;2023-02-03T06:02:41;12.30;;;5.25;;
65368;SDS011;51970;53.484;49.488;2023-02-03T06:05:08;15.13;;;7.85;;
65368;SDS011;51970;53.484;49.488;2023-02-03T06:07:43;16.00;;;6.57;;
65368;SDS011;51970;53.484;49.488;2023-02-03T06:10:13;12.68;;;6.00;;
65368;SDS011;51970;53.484;49.488;2023-02-03T06:13:14;15.10;;;5.80;;
65368;SDS011;51970;53.484;49.488;2023-02-03T06:16:20;14.85;;;6.15;;
65368;SDS011;51970;53.484;49.488;2023-02-03T06:19:11;14.27;;;5.78;;
65368;SDS011;51970;53.484;49.488;2023-02-03T06:21:41;13.93;;;6.20;;
65368;SDS011;51970;53.484;49.488;2023-02-03T06:24:29;14.25;;;6.15;;
65368;SDS011;51970;53.484;49.488;2023-02-03T06:26:57;13.48;;;6.88;;
65368;SDS011;51970;53.484;49.488;2023-02-03T06:30:09;13.90;;;6.28;;
65368;SDS011;51970;53.484;49.488;2023-02-03T06:35:29;16.23;;;6.68;;
65368;SDS011;51970;53.484;49.488;2023-02-03T06:38:29;14.02;;;5.95;;
65368;SDS011;51970;53.484;49.488;2023-02-03T06:41:29;12.75;;;5.10;;
65368;SDS011;51970;53.484;49.488;2023-02-03T06:44:03;14.07;;;5.60;;
65368;SDS011;51970;53.484;49.488;2023-02-03T06:46:58;13.55;;;5.63;;
65368;SDS011;51970;53.484;49.488;2023-02-03T06:50:00;12.93;;;6.30;;
65368;SDS011;51970;53.484;49.488;2023-02-03T06:53:19;10.45;;;4.80;;
65368;SDS011;51970;53.484;49.488;2023-02-03T06:55:54;15.57;;;6.13;;
65368;SDS011;51970;53.484;49.488;2023-02-03T06:58:57;11.60;;;5.22;;
65368;SDS011;51970;53.484;49.488;2023-02-03T07:01:25;13.98;;;5.97;;
65368;SDS011;51970;53.484;49.488;2023-02-03T07:07:07;15.95;;;5.70;;
65368;SDS011;51970;53.484;49.488;2023-02-03T07:10:08;14.00;;;6.35;;
65368;SDS011;51970;53.484;49.488;2023-02-03T07:15:45;12.30;;;6.10;;
65368;SDS011;51970;53.484;49.488;2023-02-03T07:18:31;17.65;;;6.82;;
65368;SDS011;51970;53.484;49.488;2023-02-03T07:21:25;15.70;;;6.40;;
65368;SDS011;51970;53.484;49.488;2023-02-03T07:24:18;11.18;;;5.18;;
65368;SDS011;51970;53.484;49.488;2023-02-03T07:26:48;16.23;;;7.85;;
65368;SDS011;51970;53.484;49.488;2023-02-03T07:29:18;14.15;;;7.07;;
65368;SDS011;51970;53.484;49.488;2023-02-03T07:31:48;16.27;;;6.57;;
65368;SDS011;51970;53.484;49.488;2023-02-03T07:34:24;17.15;;;6.28;;
65368;SDS011;51970;53.484;49.488;2023-02-03T07:37:13;14.45;;;6.90;;
65368;SDS011;51970;53.484;49.488;2023-02-03T07:40:30;17.13;;;7.10;;
65368;SDS011;51970;53.484;49.488;2023-02-03T07:43:03;17.02;;;6.47;;
65368;SDS011;51970;53.484;49.488;2023-02-03T07:46:08;14.93;;;7.28;;
65368;SDS011;51970;53.484;49.488;2023-02-03T07:48:52;13.98;;;6.90;;
65368;SDS011;51970;53.484;49.488;2023-02-03T07:57:21;16.90;;;6.47;;
65368;SDS011;51970;53.484;49.488;2023-02-03T08:00:05;15.48;;;5.57;;
65368;SDS011;51970;53.484;49.488;2023-02-03T08:03:10;16.33;;;6.35;;
65368;SDS011;51970;53.484;49.488;2023-02-03T08:06:21;13.10;;;6.00;;
65368;SDS011;51970;53.484;49.488;2023-02-03T08:09:18;14.00;;;5.45;;
65368;SDS011;51970;53.484;49.488;2023-02-03T08:11:54;14.65;;;6.53;;
65368;SDS011;51970;53.484;49.488;2023-02-03T08:14:39;12.80;;;5.80;;
65368;SDS011;51970;53.484;49.488;2023-02-03T08:17:19;16.23;;;6.88;;
65368;SDS011;51970;53.484;49.488;2023-02-03T08:19:48;14.10;;;6.35;;
65368;SDS011;51970;53.484;49.488;2023-02-03T08:22:40;15.48;;;6.32;;
65368;SDS011;51970;53.484;49.488;2023-02-03T08:25:11;15.07;;;6.35;;
65368;SDS011;51970;53.484;49.488;2023-02-03T08:27:41;12.52;;;5.07;;
65368;SDS011;51970;53.484;49.488;2023-02-03T08:32:56;18.60;;;7.32;;
65368;SDS011;51970;53.484;49.488;2023-02-03T08:36:00;12.95;;;5.15;;
65368;SDS011;51970;53.484;49.488;2023-02-03T08:41:38;17.90;;;6.50;;
65368;SDS011;51970;53.484;49.488;2023-02-03T08:44:52;12.40;;;5.60;;
65368;SDS011;51970;53.484;49.488;2023-02-03T08:47:58;16.52;;;6.50;;
65368;SDS011;51970;53.484;49.488;2023-02-03T08:50:54;14.00;;;6.82;;
65368;SDS011;51970;53.484;49.488;2023-02-03T08:57:12;15.73;;;5.75;;
65368;SDS011;51970;53.484;49.488;2023-02-03T09:00:26;11.02;;;5.47;;
65368;SDS011;51970;53.484;49.488;2023-02-03T09:03:18;15.88;;;6.68;;
65368;SDS011;51970;53.484;49.488;2023-02-03T09:06:32;14.63;;;6.63;;
65368;SDS011;51970;53.484;49.488;2023-02-03T09:09:24;13.00;;;6.22;;
65368;SDS011;51970;53.484;49.488;2023-02-03T09:12:30;14.75;;;5.95;;
65368;SDS011;51970;53.484;49.488;2023-02-03T09:14:59;13.10;;;6.40;;
65368;SDS011;51970;53.484;49.488;2023-02-03T09:20:23;14.23;;;6.25;;
65368;SDS011;51970;53.484;49.488;2023-02-03T09:25:53;12.75;;;5.07;;
65368;SDS011;51970;53.484;49.488;2023-02-03T09:28:48;15.88;;;6.82;;
65368;SDS011;51970;53.484;49.488;2023-02-03T09:34:25;14.55;;;4.78;;
65368;SDS011;51970;53.484;49.488;2023-02-03T09:37:34;11.70;;;3.97;;
65368;SDS011;51970;53.484;49.488;2023-02-03T09:40:32;11.35;;;5.30;;
65368;SDS011;51970;53.484;49.488;2023-02-03T09:47:20;7.97;;;3.78;;
65368;SDS011;51970;53.484;49.488;2023-02-03T09:50:20;8.15;;;4.30;;
65368;SDS011;51970;53.484;49.488;2023-02-03T09:52:56;10.30;;;4.90;;
65368;SDS011;51970;53.484;49.488;2023-02-03T09:55:40;11.52;;;4.63;;
65368;SDS011;51970;53.484;49.488;2023-02-03T09:58:25;11.10;;;4.03;;
65368;SDS011;51970;53.484;49.488;2023-02-03T10:04:01;10.10;;;4.35;;
65368;SDS011;51970;53.484;49.488;2023-02-03T10:20:27;9.20;;;3.92;;
65368;SDS011;51970;53.484;49.488;2023-02-03T10:23:21;10.43;;;3.85;;
65368;SDS011;51970;53.484;49.488;2023-02-03T10:26:25;15.18;;;6.22;;
65368;SDS011;51970;53.484;49.488;2023-02-03T10:29:19;10.18;;;5.22;;
65368;SDS011;51970;53.484;49.488;2023-02-03T10:32:49;13.70;;;5.97;;
65368;SDS011;51970;53.484;49.488;2023-02-03T10:35:58;10.93;;;4.10;;
65368;SDS011;51970;53.484;49.488;2023-02-03T10:42:54;10.23;;;4.47;;
65368;SDS011;51970;53.484;49.488;2023-02-03T10:45:47;16.10;;;5.25;;
65368;SDS011;51970;53.484;49.488;2023-02-03T10:59:21;10.90;;;5.18;;
65368;SDS011;51970;53.484;49.488;2023-02-03T11:02:28;11.55;;;5.18;;
65368;SDS011;51970;53.484;49.488;2023-02-03T11:05:34;12.55;;;8.98;;
65368;SDS011;51970;53.484;49.488;2023-02-03T11:08:35;12.00;;;5.10;;
65368;SDS011;51970;53.484;49.488;2023-02-03T11:11:29;12.23;;;6.63;;
65368;SDS011;51970;53.484;49.488;2023-02-03T11:16:43;9.70;;;4.82;;
65368;SDS011;51970;53.484;49.488;2023-02-03T11:19:16;11.10;;;5.65;;
65368;SDS011;51970;53.484;49.488;2023-02-03T11:25:23;10.13;;;4.75;;
65368;SDS011;51970;53.484;49.488;2023-02-03T11:28:09;15.05;;;6.82;;
65368;SDS011;51970;53.484;49.488;2023-02-03T11:30:58;10.65;;;5.80;;
65368;SDS011;51970;53.484;49.488;2023-02-03T11:34:16;11.07;;;6.38;;
65368;SDS011;51970;53.484;49.488;2023-02-03T11:37:36;17.50;;;5.93;;
65368;SDS011;51970;53.484;49.488;2023-02-03T11:40:41;16.02;;;5.72;;
65368;SDS011;51970;53.484;49.488;2023-02-03T11:43:40;18.58;;;7.10;;
65368;SDS011;51970;53.484;49.488;2023-02-03T11:46:56;19.65;;;6.38;;
65368;SDS011;51970;53.484;49.488;2023-02-03T11:49:58;13.63;;;6.00;;
65368;SDS011;51970;53.484;49.488;2023-02-03T11:52:55;11.65;;;5.35;;
65368;SDS011;51970;53.484;49.488;2023-02-03T12:21:12;14.48;;;5.28;;
65368;SDS011;51970;53.484;49.488;2023-02-03T12:33:40;12.90;;;5.95;;
65368;SDS011;51970;53.484;49.488;2023-02-03T12:36:35;12.15;;;5.88;;
65368;SDS011;51970;53.484;49.488;2023-02-03T12:39:18;14.43;;;6.32;;
65368;SDS011;51970;53.484;49.488;2023-02-03T12:46:15;10.90;;;4.90;;
65368;SDS011;51970;53.484;49.488;2023-02-03T12:55:21;11.38;;;4.72;;
65368;SDS011;51970;53.484;49.488;2023-02-03T12:58:04;12.55;;;4.43;;
65368;SDS011;51970;53.484;49.488;2023-02-03T13:08:24;11.05;;;5.75;;
65368;SDS011;51970;53.484;49.488;2023-02-03T13:16:39;13.48;;;6.10;;
65368;SDS011;51970;53.484;49.488;2023-02-03T13:27:12;10.60;;;4.78;;
65368;SDS011;51970;53.484;49.488;2023-02-03T13:37:10;11.32;;;5.15;;
65368;SDS011;51970;53.484;49.488;2023-02-03T13:43:58;12.60;;;4.82;;
65368;SDS011;51970;53.484;49.488;2023-02-03T13:46:41;16.88;;;5.03;;
65368;SDS011;51970;53.484;49.488;2023-02-03T13:50:02;11.43;;;5.20;;
65368;SDS011;51970;53.484;49.488;2023-02-03T13:53:00;9.65;;;4.05;;
65368;SDS011;51970;53.484;49.488;2023-02-03T13:56:02;9.75;;;4.53;;
65368;SDS011;51970;53.484;49.488;2023-02-03T13:59:48;8.27;;;3.97;;
65368;SDS011;51970;53.484;49.488;2023-02-03T14:02:39;9.10;;;4.25;;
65368;SDS011;51970;53.484;49.488;2023-02-03T14:09:21;13.10;;;3.67;;
65368;SDS011;51970;53.484;49.488;2023-02-03T14:19:02;8.63;;;3.97;;
65368;SDS011;51970;53.484;49.488;2023-02-03T14:21:53;8.70;;;4.35;;
65368;SDS011;51970;53.484;49.488;2023-02-03T14:24:45;10.48;;;4.28;;
65368;SDS011;51970;53.484;49.488;2023-02-03T14:37:25;7.32;;;3.35;;
65368;SDS011;51970;53.484;49.488;2023-02-03T14:43:43;10.23;;;4.13;;
65368;SDS011;51970;53.484;49.488;2023-02-03T14:50:17;10.35;;;4.25;;
65368;SDS011;51970;53.484;49.488;2023-02-03T15:00:35;12.57;;;4.05;;
65368;SDS011;51970;53.484;49.488;2023-02-03T15:03:21;10.57;;;4.55;;
65368;SDS011;51970;53.484;49.488;2023-02-03T15:06:53;16.27;;;6.05;;
65368;SDS011;51970;53.484;49.488;2023-02-03T15:13:32;17.52;;;5.55;;
65368;SDS011;51970;53.484;49.488;2023-02-03T15:20:01;11.80;;;6.45;;
65368;SDS011;51970;53.484;49.488;2023-02-03T15:27:32;11.73;;;5.32;;
65368;SDS011;51970;53.484;49.488;2023-02-03T15:30:28;9.93;;;4.85;;
65368;SDS011;51970;53.484;49.488;2023-02-03T16:20:24;9.90;;;4.53;;
65368;SDS011;51970;53.484;49.488;2023-02-03T16:30:58;8.82;;;4.35;;
65368;SDS011;51970;53.484;49.488;2023-02-03T16:38:14;12.38;;;6.38;;
65368;SDS011;51970;53.484;49.488;2023-02-03T16:52:38;12.52;;;5.70;;
65368;SDS011;51970;53.484;49.488;2023-02-03T17:06:04;17.63;;;9.43;;
65368;SDS011;51970;53.484;49.488;2023-02-03T17:19:34;20.50;;;9.30;;
65368;SDS011;51970;53.484;49.488;2023-02-03T17:22:30;21.63;;;11.10;;
65368;SDS011;51970;53.484;49.488;2023-02-03T17:27:56;20.10;;;10.63;;
65368;SDS011;51970;53.484;49.488;2023-02-03T17:49:14;10.52;;;5.05;;
65368;SDS011;51970;53.484;49.488;2023-02-03T17:56:35;11.63;;;4.03;;
65368;SDS011;51970;53.484;49.488;2023-02-03T17:59:31;12.95;;;4.60;;
65368;SDS011;51970;53.484;49.488;2023-02-03T18:09:26;11.82;;;5.78;;
65368;SDS011;51970;53.484;49.488;2023-02-03T18:47:54;12.25;;;5.00;;
65368;SDS011;51970;53.484;49.488;2023-02-03T18:58:53;12.27;;;5.20;;
65368;SDS011;51970;53.484;49.488;2023-02-03T19:03:24;19.65;;;4.43;;
65368;SDS011;51970;53.484;49.488;2023-02-03T19:09:40;10.57;;;4.93;;
65368;SDS011;51970;53.484;49.488;2023-02-03T19:16:32;11.10;;;4.63;;
65368;SDS011;51970;53.484;49.488;2023-02-03T19:19:03;12.13;;;6.13;;
65368;SDS011;51970;53.484;49.488;2023-02-03T19:22:40;12.30;;;5.78;;
65368;SDS011;51970;53.484;49.488;2023-02-03T19:25:50;10.43;;;4.95;;
65368;SDS011;51970;53.484;49.488;2023-02-03T19:38:53;12.30;;;5.60;;
65368;SDS011;51970;53.484;49.488;2023-02-03T19:42:20;10.68;;;6.50;;
65368;SDS011;51970;53.484;49.488;2023-02-03T19:45:38;13.90;;;5.03;;
65368;SDS011;51970;53.484;49.488;2023-02-03T20:01:21;10.40;;;6.28;;
65368;SDS011;51970;53.484;49.488;2023-02-03T20:05:08;13.52;;;4.88;;
65368;SDS011;51970;53.484;49.488;2023-02-03T20:08:19;10.10;;;5.45;;
65368;SDS011;51970;53.484;49.488;2023-02-03T20:11:31;11.05;;;5.10;;
65368;SDS011;51970;53.484;49.488;2023-02-03T20:15:00;11.15;;;4.97;;
65368;SDS011;51970;53.484;49.488;2023-02-03T20:21:23;10.88;;;4.85;;
65368;SDS011;51970;53.484;49.488;2023-02-03T20:24:57;11.77;;;5.70;;
65368;SDS011;51970;53.484;49.488;2023-02-03T20:28:13;13.40;;;6.20;;
65368;SDS011;51970;53.484;49.488;2023-02-03T20:36:20;11.30;;;5.88;;
65368;SDS011;51970;53.484;49.488;2023-02-03T20:40:01;11.85;;;5.22;;
65368;SDS011;51970;53.484;49.488;2023-02-03T20:42:49;15.60;;;6.00;;
65368;SDS011;51970;53.484;49.488;2023-02-03T20:56:56;11.93;;;5.88;;
65368;SDS011;51970;53.484;49.488;2023-02-03T21:00:28;13.40;;;4.63;;
65368;SDS011;51970;53.484;49.488;2023-02-03T21:03:54;12.23;;;5.00;;
65368;SDS011;51970;53.484;49.488;2023-02-03T21:07:12;13.07;;;5.38;;
65368;SDS011;51970;53.484;49.488;2023-02-03T21:10:50;8.63;;;4.13;;
65368;SDS011;51970;53.484;49.488;2023-02-03T21:14:39;15.65;;;5.97;;
65368;SDS011;51970;53.484;49.488;2023-02-03T21:18:33;8.98;;;4.80;;
65368;SDS011;51970;53.484;49.488;2023-02-03T21:21:36;13.43;;;5.32;;
65368;SDS011;51970;53.484;49.488;2023-02-03T21:24:37;16.55;;;5.57;;
65368;SDS011;51970;53.484;49.488;2023-02-03T21:27:30;13.65;;;6.00;;
65368;SDS011;51970;53.484;49.488;2023-02-03T21:30:09;12.68;;;5.28;;
65368;SDS011;51970;53.484;49.488;2023-02-03T21:33:40;11.23;;;5.55;;
65368;SDS011;51970;53.484;49.488;2023-02-03T21:36:54;9.55;;;5.15;;
65368;SDS011;51970;53.484;49.488;2023-02-03T21:40:22;10.85;;;4.22;;
65368;SDS011;51970;53.484;49.488;2023-02-03T21:43:02;10.48;;;5.35;;
65368;SDS011;51970;53.484;49.488;2023-02-03T21:51:16;11.90;;;4.93;;
65368;SDS011;51970;53.484;49.488;2023-02-03T21:54:27;13.20;;;9.98;;
65368;SDS011;51970;53.484;49.488;2023-02-03T21:57:46;18.13;;;5.18;;
65368;SDS011;51970;53.484;49.488;2023-02-03T22:03:38;10.82;;;5.03;;
65368;SDS011;51970;53.484;49.488;2023-02-03T22:06:14;11.77;;;6.50;;
65368;SDS011;51970;53.484;49.488;2023-02-03T22:09:25;19.10;;;8.77;;
65368;SDS011;51970;53.484;49.488;2023-02-03T22:11:52;23.85;;;10.82;;
65368;SDS011;51970;53.484;49.488;2023-02-03T22:14:19;29.98;;;13.60;;
65368;SDS011;51970;53.484;49.488;2023-02-03T22:17:00;32.65;;;16.50;;
65368;SDS011;51970;53.484;49.488;2023-02-03T22:20:47;22.60;;;11.65;;
65368;SDS011;51970;53.484;49.488;2023-02-03T22:23:56;20.48;;;14.13;;
65368;SDS011;51970;53.484;49.488;2023-02-03T22:27:25;13.80;;;7.25;;
65368;SDS011;51970;53.484;49.488;2023-02-03T22:30:19;22.45;;;7.38;;
65368;SDS011;51970;53.484;49.488;2023-02-03T22:34:09;19.42;;;7.07;;
65368;SDS011;51970;53.484;49.488;2023-02-03T22:36:54;12.05;;;5.50;;
65368;SDS011;51970;53.484;49.488;2023-02-03T22:39:59;13.65;;;6.28;;
65368;SDS011;51970;53.484;49.488;2023-02-03T22:43:23;12.82;;;6.63;;
65368;SDS011;51970;53.484;49.488;2023-02-03T22:46:16;12.10;;;5.13;;
65368;SDS011;51970;53.484;49.488;2023-02-03T22:49:25;20.08;;;6.55;;
65368;SDS011;51970;53.484;49.488;2023-02-03T22:52:05;16.95;;;5.88;;
65368;SDS011;51970;53.484;49.488;2023-02-03T22:54:41;11.65;;;4.72;;
65368;SDS011;51970;53.484;49.488;2023-02-03T22:57:08;13.30;;;6.38;;
65368;SDS011;51970;53.484;49.488;2023-02-03T23:00:25;15.05;;;7.07;;
65368;SDS011;51970;53.484;49.488;2023-02-03T23:03:33;13.45;;;5.82;;
65368;SDS011;51970;53.484;49.488;2023-02-03T23:06:23;10.35;;;4.55;;
65368;SDS011;51970;53.484;49.488;2023-02-03T23:10:03;12.15;;;5.60;;
65368;SDS011;51970;53.484;49.488;2023-02-03T23:12:44;12.57;;;6.05;;
65368;SDS011;51970;53.484;49.488;2023-02-03T23:15:54;17.92;;;5.53;;
65368;SDS011;51970;53.484;49.488;2023-02-03T23:19:05;12.05;;;5.13;;
65368;SDS011;51970;53.484;49.488;2023-02-03T23:21:34;14.93;;;6.75;;
65368;SDS011;51970;53.484;49.488;2023-02-03T23:24:42;12.13;;;5.47;;
65368;SDS011;51970;53.484;49.488;2023-02-03T23:27:57;17.83;;;6.07;;
65368;SDS011;51970;53.484;49.488;2023-02-03T23:31:06;12.35;;;5.82;;
65368;SDS011;51970;53.484;49.488;2023-02-03T23:33:42;13.05;;;6.43;;
65368;SDS011;51970;53.484;49.488;2023-02-03T23:37:37;15.98;;;5.85;;
65368;SDS011;51970;53.484;49.488;2023-02-03T23:40:13;13.77;;;6.95;;
65368;SDS011;51970;53.484;49.488;2023-02-03T23:43:42;15.98;;;8.68;;
65368;SDS011;51970;53.484;49.488;2023-02-03T23:46:45;20.40;;;13.10;;
65368;SDS011;51970;53.484;49.488;2023-02-03T23:50:02;37.05;;;15.65;;
65368;SDS011;51970;53.484;49.488;2023-02-03T23:53:08;39.85;;;17.88;;